createdAt,value
2023-01-21T00:03:47.588Z,22.58
2023-01-21T00:08:50.429Z,25.15
2023-01-21T00:13:53.134Z,28.13
2023-01-21T00:18:58.291Z,24.35
2023-01-21T00:24:01.032Z,23.38
2023-01-21T00:29:03.895Z,25.40
2023-01-21T00:34:08.013Z,25.95
2023-01-21T00:39:10.933Z,23.45
2023-01-21T00:44:13.646Z,26.70
2023-01-21T00:49:17.767Z,27.33
2023-01-21T00:54:20.654Z,30.60
2023-01-21T00:59:23.402Z,28.55
2023-01-21T01:04:27.480Z,30.75
2023-01-21T01:09:30.593Z,33.50
2023-01-21T01:14:33.512Z,33.67
2023-01-21T01:19:37.669Z,29.60
2023-01-21T01:24:40.459Z,32.75
2023-01-21T01:29:43.195Z,29.98
2023-01-21T01:34:47.276Z,26.85
2023-01-21T01:39:50.033Z,33.30
2023-01-21T01:44:59.161Z,32.05
2023-01-21T01:50:05.319Z,34.95
2023-01-21T01:55:09.692Z,29.90
2023-01-21T02:00:14.415Z,27.52
2023-01-21T02:05:18.843Z,29.35
2023-01-21T02:10:21.792Z,31.17
2023-01-21T02:15:30.224Z,32.13
2023-01-21T02:26:35.903Z,28.77
2023-01-21T02:32:11.682Z,30.38
2023-01-21T02:37:20.755Z,31.73
2023-01-21T02:42:32.779Z,32.22
2023-01-21T02:47:42.141Z,29.70
2023-01-21T02:52:46.214Z,32.20
2023-01-21T02:57:53.054Z,34.78
2023-01-21T03:03:23.100Z,31.08
2023-01-21T03:08:35.097Z,30.25
2023-01-21T03:14:00.693Z,31.30
2023-01-21T03:19:08.043Z,27.75
2023-01-21T03:24:15.393Z,28.98
2023-01-21T03:29:23.559Z,31.27
2023-01-21T03:34:30.968Z,28.88
2023-01-21T03:39:42.622Z,31.10
2023-01-21T03:44:47.140Z,31.95
2023-01-21T03:49:54.627Z,33.63
2023-01-21T03:54:58.820Z,32.87
2023-01-21T04:00:01.551Z,31.40
2023-01-21T04:05:07.888Z,33.92
2023-01-21T04:10:12.639Z,34.40
2023-01-21T04:15:15.537Z,37.53
2023-01-21T04:20:18.814Z,38.10
2023-01-21T04:25:23.137Z,41.35
2023-01-21T04:30:25.884Z,40.42
2023-01-21T04:35:28.648Z,36.10
2023-01-21T04:40:32.891Z,35.22
2023-01-21T04:45:35.718Z,34.97
2023-01-21T04:50:39.667Z,37.90
2023-01-21T04:55:43.804Z,42.00
2023-01-21T05:00:46.538Z,39.67
2023-01-21T05:05:49.419Z,44.70
2023-01-21T05:10:53.509Z,45.05
2023-01-21T05:15:56.858Z,44.78
2023-01-21T05:20:59.675Z,46.33
2023-01-21T05:26:04.599Z,43.58
2023-01-21T05:31:07.491Z,49.20
2023-01-21T05:36:11.130Z,41.50
2023-01-21T05:41:15.313Z,38.30
2023-01-21T05:46:18.307Z,40.35
2023-01-21T05:51:21.196Z,37.10
2023-01-21T05:56:25.583Z,37.88
2023-01-21T06:01:28.426Z,35.90
2023-01-21T06:06:31.615Z,35.47
2023-01-21T06:11:35.824Z,35.38
2023-01-21T06:16:38.614Z,36.42
2023-01-21T06:21:41.533Z,36.22
2023-01-21T06:26:45.710Z,41.72
2023-01-21T06:31:48.713Z,33.38
2023-01-21T06:36:51.798Z,34.50
2023-01-21T06:41:55.988Z,37.03
2023-01-21T06:47:00.921Z,32.80
2023-01-21T06:52:04.986Z,33.97
2023-01-21T06:57:09.246Z,35.53
2023-01-21T07:02:13.877Z,33.72
2023-01-21T07:07:16.777Z,37.40
2023-01-21T07:12:20.982Z,37.13
2023-01-21T07:17:23.804Z,36.33
2023-01-21T07:22:26.529Z,39.20
2023-01-21T07:27:30.634Z,40.80
2023-01-21T07:32:33.421Z,38.63
2023-01-21T07:37:41.431Z,40.92
2023-01-21T07:42:51.205Z,44.88
2023-01-21T07:47:55.139Z,35.42
2023-01-21T07:52:59.554Z,41.40
2023-01-21T07:58:03.754Z,41.17
2023-01-21T08:03:06.606Z,43.03
2023-01-21T08:08:09.367Z,41.30
2023-01-21T08:13:13.481Z,42.17
2023-01-21T08:18:16.282Z,43.83
2023-01-21T08:23:19.034Z,40.17
2023-01-21T08:28:24.079Z,40.28
2023-01-21T08:33:26.864Z,35.47
2023-01-21T08:38:30.155Z,38.92
2023-01-21T08:43:34.227Z,37.40
2023-01-21T08:48:38.775Z,38.25
2023-01-21T08:53:41.673Z,38.30
2023-01-21T08:58:46.048Z,37.15
2023-01-21T09:03:48.794Z,40.33
2023-01-21T09:08:51.607Z,44.85
2023-01-21T09:13:57.931Z,43.28
2023-01-21T09:19:00.717Z,39.42
2023-01-21T09:24:03.735Z,40.00
2023-01-21T09:29:07.910Z,38.45
2023-01-21T09:34:11.656Z,42.92
2023-01-21T09:39:14.492Z,45.83
2023-01-21T09:44:25.923Z,44.40
2023-01-21T09:49:32.062Z,44.72
2023-01-21T09:54:37.741Z,38.47
2023-01-21T09:59:56.179Z,36.88
2023-01-21T10:05:18.296Z,35.58
2023-01-21T10:10:29.887Z,38.70
2023-01-21T10:15:45.144Z,35.40
2023-01-21T10:20:52.236Z,35.53
2023-01-21T10:25:57.261Z,34.95
2023-01-21T10:31:08.183Z,32.53
2023-01-21T10:36:51.651Z,34.58
2023-01-21T10:42:13.530Z,32.42
2023-01-21T10:47:29.999Z,33.90
2023-01-21T10:52:41.122Z,27.83
2023-01-21T10:57:56.990Z,30.98
2023-01-21T11:03:05.951Z,30.17
2023-01-21T11:08:14.740Z,33.17
2023-01-21T11:13:17.573Z,31.80
2023-01-21T11:18:30.505Z,30.15
2023-01-21T11:23:35.706Z,31.48
2023-01-21T11:28:38.656Z,25.45
2023-01-21T11:33:43.985Z,28.75
2023-01-21T11:38:49.180Z,26.55
2023-01-21T11:43:54.108Z,28.67
2023-01-21T11:49:18.604Z,27.23
2023-01-21T11:54:23.055Z,23.67
2023-01-21T11:59:33.920Z,23.17
2023-01-21T12:04:39.119Z,23.45
2023-01-21T12:09:42.121Z,24.83
2023-01-21T12:14:53.024Z,21.65
2023-01-21T12:20:13.028Z,20.73
2023-01-21T12:25:30.530Z,19.75
2023-01-21T12:30:42.698Z,19.85
2023-01-21T12:35:51.516Z,20.88
2023-01-21T12:41:00.675Z,21.65
2023-01-21T12:46:10.725Z,22.80
2023-01-21T12:51:21.308Z,24.00
2023-01-21T12:56:31.688Z,25.77
2023-01-21T13:01:46.405Z,22.55
2023-01-21T13:06:59.384Z,25.02
2023-01-21T13:12:05.629Z,26.52
2023-01-21T13:17:18.009Z,27.55
2023-01-21T13:22:34.789Z,26.05
2023-01-21T13:27:45.113Z,28.77
2023-01-21T13:32:54.441Z,26.83
2023-01-21T13:38:08.799Z,29.92
2023-01-21T13:43:25.221Z,27.35
2023-01-21T13:48:42.752Z,27.52
2023-01-21T13:54:03.689Z,26.40
2023-01-21T13:59:13.488Z,29.67
2023-01-21T14:04:26.511Z,31.67
2023-01-21T14:09:38.440Z,28.17
2023-01-21T14:14:58.737Z,27.77
2023-01-21T14:20:26.545Z,25.33
2023-01-21T14:25:46.529Z,25.92
2023-01-21T14:30:58.893Z,26.67
2023-01-21T14:36:08.999Z,22.83
2023-01-21T14:41:13.717Z,26.25
2023-01-21T14:46:32.661Z,25.05
2023-01-21T14:51:37.849Z,25.38
2023-01-21T14:56:53.176Z,23.77
2023-01-21T15:02:01.500Z,19.35
2023-01-21T15:12:17.461Z,23.50
2023-01-21T15:17:45.839Z,18.83
2023-01-21T15:23:05.229Z,20.05
2023-01-21T15:28:38.190Z,17.73
2023-01-21T15:33:47.590Z,16.02
2023-01-21T15:38:52.034Z,17.55
2023-01-21T15:44:06.466Z,14.35
2023-01-21T15:49:28.606Z,18.13
2023-01-21T15:54:37.943Z,19.58
2023-01-21T15:59:54.583Z,14.57
2023-01-21T16:05:11.067Z,14.10
2023-01-21T16:10:22.436Z,11.75
2023-01-21T16:15:40.038Z,11.18
2023-01-21T16:20:47.259Z,9.90
2023-01-21T16:25:53.340Z,9.90
2023-01-21T16:30:58.952Z,11.55
2023-01-21T16:36:07.269Z,10.38
2023-01-21T16:41:27.495Z,10.63
2023-01-21T16:46:34.572Z,12.25
2023-01-21T16:51:42.970Z,9.15
2023-01-21T17:01:51.402Z,9.77
2023-01-21T17:06:55.762Z,9.15
2023-01-21T17:12:02.916Z,7.82
2023-01-21T17:17:09.535Z,14.57
2023-01-21T17:22:17.449Z,12.38
2023-01-21T17:27:23.262Z,12.40
2023-01-21T17:32:27.991Z,11.57
2023-01-21T17:37:46.192Z,9.93
2023-01-21T17:42:49.049Z,12.13
2023-01-21T17:48:08.695Z,15.10
2023-01-21T17:53:23.165Z,14.63
2023-01-21T17:58:44.783Z,15.63
2023-01-21T18:03:47.603Z,13.55
2023-01-21T18:08:52.800Z,14.88
2023-01-21T18:13:55.622Z,16.77
2023-01-21T18:18:58.633Z,16.55
2023-01-21T18:24:02.796Z,14.43
2023-01-21T18:29:05.596Z,13.90
2023-01-21T18:34:08.743Z,14.25
2023-01-21T18:39:15.029Z,13.88
2023-01-21T18:44:18.129Z,12.20
2023-01-21T18:49:22.893Z,16.50
2023-01-21T18:54:27.037Z,16.55
2023-01-21T18:59:29.911Z,13.90
2023-01-21T19:04:32.699Z,16.60
2023-01-21T19:09:40.774Z,18.25
2023-01-21T19:14:44.167Z,15.38
2023-01-21T19:19:46.999Z,14.82
2023-01-21T19:24:51.356Z,15.27
2023-01-21T19:29:54.478Z,16.80
2023-01-21T19:34:57.811Z,14.82
2023-01-21T19:40:02.290Z,20.17
2023-01-21T19:45:05.724Z,14.75
2023-01-21T19:50:12.018Z,17.00
2023-01-21T19:55:18.071Z,18.17
2023-01-21T20:00:23.419Z,15.02
2023-01-21T20:05:27.667Z,14.30
2023-01-21T20:10:32.338Z,15.25
2023-01-21T20:15:35.677Z,15.85
2023-01-21T20:20:38.496Z,15.25
2023-01-21T20:25:44.540Z,14.95
2023-01-21T20:30:48.291Z,17.55
2023-01-21T20:35:54.682Z,19.70
2023-01-21T20:40:59.304Z,20.65
2023-01-21T20:46:05.466Z,17.15
2023-01-21T20:51:08.983Z,17.88
2023-01-21T20:56:21.997Z,16.15
2023-01-21T21:01:26.747Z,19.83
2023-01-21T21:06:30.548Z,17.90
2023-01-21T21:11:34.728Z,14.55
2023-01-21T21:16:38.117Z,16.83
2023-01-21T21:21:40.926Z,15.68
2023-01-21T21:26:45.890Z,15.80
2023-01-21T21:31:48.863Z,15.15
2023-01-21T21:36:51.701Z,16.40
2023-01-21T21:42:15.872Z,16.13
2023-01-21T21:47:36.416Z,14.40
2023-01-21T21:52:39.170Z,13.20
2023-01-21T21:57:43.400Z,9.07
2023-01-21T22:02:46.168Z,9.93
2023-01-21T22:07:48.945Z,12.40
2023-01-21T22:12:53.220Z,12.90
2023-01-21T22:17:57.024Z,10.43
2023-01-21T22:22:59.832Z,8.85
2023-01-21T22:28:04.103Z,8.95
2023-01-21T22:33:07.556Z,7.32
2023-01-21T22:38:10.333Z,8.95
2023-01-21T22:43:15.513Z,6.55
2023-01-21T22:48:18.483Z,7.40
2023-01-21T22:53:21.484Z,9.15
2023-01-21T22:58:28.227Z,8.65
2023-01-21T23:03:31.826Z,10.80
2023-01-21T23:08:34.736Z,7.25
2023-01-21T23:13:38.917Z,8.50
2023-01-21T23:18:42.653Z,6.57
2023-01-21T23:23:45.658Z,7.95
2023-01-21T23:28:49.791Z,8.68
2023-01-21T23:33:53.628Z,9.63
2023-01-21T23:38:56.419Z,8.82
2023-01-21T23:44:01.430Z,9.75
2023-01-21T23:49:04.202Z,8.65
2023-01-21T23:54:07.027Z,8.05
2023-01-21T23:59:12.984Z,9.38
